createdAt,value
2022-09-20T00:04:43.233Z,7.20
2022-09-20T00:16:40.896Z,7.28
2022-09-20T00:21:42.477Z,7.34
2022-09-20T00:26:43.973Z,7.51
2022-09-20T00:31:45.611Z,7.62
2022-09-20T00:36:47.166Z,7.44
2022-09-20T00:41:48.678Z,7.39
2022-09-20T00:46:50.209Z,7.38
2022-09-20T00:51:59.631Z,7.45
2022-09-20T00:57:01.549Z,7.43
2022-09-20T01:02:09.188Z,7.42
2022-09-20T01:07:15.490Z,7.29
2022-09-20T01:12:23.437Z,7.45
2022-09-20T01:17:28.111Z,7.32
2022-09-20T01:22:36.039Z,7.18
2022-09-20T01:27:52.246Z,6.97
2022-09-20T01:33:13.845Z,7.17
2022-09-20T01:38:34.699Z,7.44
2022-09-20T01:43:49.098Z,7.48
2022-09-20T01:48:57.059Z,7.53
2022-09-20T01:54:37.136Z,7.53
2022-09-20T01:59:51.583Z,7.50
2022-09-20T02:05:27.526Z,7.31
2022-09-20T02:10:55.281Z,7.19
2022-09-20T02:16:06.151Z,6.89
2022-09-20T02:21:23.061Z,7.21
2022-09-20T02:26:40.301Z,7.27
2022-09-20T02:32:24.136Z,7.08
2022-09-20T02:37:50.265Z,7.05
2022-09-20T02:42:51.743Z,7.02
2022-09-20T02:47:57.988Z,7.31
2022-09-20T02:53:35.025Z,7.48
2022-09-20T02:59:01.420Z,7.45
2022-09-20T03:04:22.407Z,7.73
2022-09-20T03:09:34.875Z,7.87
2022-09-20T03:14:53.634Z,7.91
2022-09-20T03:20:20.119Z,7.92
2022-09-20T03:25:34.457Z,7.96
2022-09-20T03:30:51.612Z,8.04
2022-09-20T03:36:12.466Z,8.12
2022-09-20T03:41:32.834Z,8.12
2022-09-20T03:46:45.622Z,8.14
2022-09-20T03:52:35.582Z,8.16
2022-09-20T03:57:59.140Z,8.00
2022-09-20T04:03:13.976Z,7.75
2022-09-20T04:08:40.185Z,7.83
2022-09-20T04:13:54.732Z,7.72
2022-09-20T04:19:04.386Z,7.75
2022-09-20T04:24:25.660Z,7.45
2022-09-20T04:29:39.526Z,7.42
2022-09-20T04:35:08.264Z,7.32
2022-09-20T04:40:24.382Z,7.55
2022-09-20T04:45:37.218Z,7.65
2022-09-20T04:51:18.419Z,7.72
2022-09-20T04:56:21.787Z,7.74
2022-09-20T05:01:57.204Z,7.90
2022-09-20T05:07:57.733Z,8.07
2022-09-20T05:13:30.459Z,8.23
2022-09-20T05:19:07.939Z,8.28
2022-09-20T05:24:47.678Z,8.30
2022-09-20T05:30:05.274Z,8.21
2022-09-20T05:35:14.426Z,8.41
2022-09-20T05:40:29.134Z,8.55
2022-09-20T05:45:55.618Z,8.67
2022-09-20T05:51:23.181Z,8.83
2022-09-20T05:56:55.570Z,8.94
2022-09-20T06:01:57.159Z,9.03
2022-09-20T06:07:27.000Z,9.14
2022-09-20T06:13:01.588Z,9.24
2022-09-20T06:18:33.536Z,9.37
2022-09-20T06:23:36.478Z,9.46
2022-09-20T06:29:07.178Z,9.49
2022-09-20T06:34:14.805Z,10.18
2022-09-20T06:39:42.562Z,10.76
2022-09-20T06:44:44.110Z,11.33
2022-09-20T06:49:47.668Z,11.22
2022-09-20T06:54:55.735Z,11.89
2022-09-20T06:59:57.201Z,11.21
2022-09-20T07:04:59.204Z,11.08
2022-09-20T07:10:00.906Z,11.23
2022-09-20T07:15:02.441Z,11.54
2022-09-20T07:20:04.196Z,11.59
2022-09-20T07:25:06.215Z,11.39
2022-09-20T07:30:08.977Z,11.62
2022-09-20T07:35:11.601Z,11.72
2022-09-20T07:40:14.689Z,11.86
2022-09-20T07:45:16.367Z,11.88
2022-09-20T07:50:19.416Z,11.99
2022-09-20T07:55:21.140Z,11.88
2022-09-20T08:00:23.916Z,12.89
2022-09-20T08:05:25.667Z,13.16
2022-09-20T08:10:27.195Z,12.63
2022-09-20T08:15:29.251Z,12.56
2022-09-20T08:20:30.950Z,12.75
2022-09-20T08:25:33.140Z,13.24
2022-09-20T08:30:34.688Z,12.93
2022-09-20T08:35:38.167Z,12.97
2022-09-20T08:40:40.064Z,13.07
2022-09-20T08:45:41.965Z,13.20
2022-09-20T08:50:43.999Z,13.17
2022-09-20T08:55:46.098Z,13.11
2022-09-20T09:00:47.898Z,13.30
2022-09-20T09:05:55.028Z,13.46
2022-09-20T09:10:59.250Z,13.81
2022-09-20T09:16:06.805Z,14.24
2022-09-20T09:21:10.410Z,14.82
2022-09-20T09:26:19.035Z,14.70
2022-09-20T09:31:25.947Z,14.88
2022-09-20T09:36:27.615Z,15.19
2022-09-20T09:41:35.718Z,14.64
2022-09-20T09:46:40.186Z,14.65
2022-09-20T09:52:01.691Z,14.96
2022-09-20T09:57:25.047Z,14.81
2022-09-20T10:02:55.926Z,15.40
2022-09-20T10:08:15.497Z,15.20
2022-09-20T10:13:38.272Z,14.83
2022-09-20T10:19:12.569Z,15.44
2022-09-20T10:24:52.208Z,15.33
2022-09-20T10:30:04.700Z,16.06
2022-09-20T10:35:22.475Z,15.86
2022-09-20T10:41:07.034Z,15.69
2022-09-20T10:46:32.229Z,15.59
2022-09-20T10:52:03.230Z,15.57
2022-09-20T10:57:46.857Z,17.33
2022-09-20T11:03:33.712Z,16.30
2022-09-20T11:08:38.206Z,15.17
2022-09-20T11:13:58.278Z,17.67
2022-09-20T11:19:18.514Z,16.69
2022-09-20T11:24:32.178Z,15.49
2022-09-20T11:29:40.805Z,15.20
2022-09-20T11:34:51.982Z,16.59
2022-09-20T11:39:55.053Z,17.42
2022-09-20T11:44:56.869Z,16.44
2022-09-20T11:50:35.163Z,15.69
2022-09-20T11:56:05.158Z,15.50
2022-09-20T12:01:13.742Z,15.31
2022-09-20T12:06:30.036Z,15.10
2022-09-20T12:11:38.774Z,14.82
2022-09-20T12:16:47.090Z,14.77
2022-09-20T12:22:04.971Z,14.89
2022-09-20T12:27:27.450Z,14.59
2022-09-20T12:32:40.462Z,14.54
2022-09-20T12:37:42.451Z,14.68
2022-09-20T12:42:44.000Z,15.73
2022-09-20T12:47:54.918Z,16.11
2022-09-20T12:52:58.805Z,16.16
2022-09-20T12:58:02.556Z,16.39
2022-09-20T13:03:23.879Z,16.35
2022-09-20T13:08:29.069Z,15.99
2022-09-20T13:13:41.923Z,15.38
2022-09-20T13:18:43.897Z,15.31
2022-09-20T13:23:54.198Z,15.05
2022-09-20T13:28:59.146Z,16.37
2022-09-20T13:34:19.335Z,16.60
2022-09-20T13:39:28.922Z,16.78
2022-09-20T13:44:34.419Z,16.12
2022-09-20T13:49:43.137Z,16.54
2022-09-20T13:54:45.619Z,15.77
2022-09-20T13:59:48.521Z,16.17
2022-09-20T14:04:54.532Z,16.19
2022-09-20T14:09:56.895Z,16.23
2022-09-20T14:14:58.808Z,16.19
2022-09-20T14:20:00.658Z,16.11
2022-09-20T14:25:25.366Z,15.99
2022-09-20T14:30:29.490Z,15.84
2022-09-20T14:35:31.785Z,15.82
2022-09-20T14:40:43.660Z,15.45
2022-09-20T14:45:53.776Z,16.22
2022-09-20T14:51:22.114Z,16.22
2022-09-20T14:56:33.867Z,16.90
2022-09-20T15:01:37.699Z,17.07
2022-09-20T15:06:39.926Z,17.03
2022-09-20T15:11:41.519Z,17.06
2022-09-20T15:16:43.033Z,15.97
2022-09-20T15:21:44.874Z,15.45
2022-09-20T15:26:46.403Z,15.29
2022-09-20T15:31:49.006Z,14.96
2022-09-20T15:36:50.799Z,14.82
2022-09-20T15:41:57.178Z,14.85
2022-09-20T15:46:58.808Z,14.75
2022-09-20T15:52:01.553Z,14.77
2022-09-20T15:57:03.890Z,14.44
2022-09-20T16:02:05.543Z,14.55
2022-09-20T16:07:07.774Z,14.47
2022-09-20T16:12:09.307Z,14.60
2022-09-20T16:17:10.773Z,14.86
2022-09-20T16:22:12.582Z,14.88
2022-09-20T16:27:14.963Z,14.58
2022-09-20T16:32:16.651Z,15.02
2022-09-20T16:37:18.953Z,14.92
2022-09-20T16:42:21.003Z,14.90
2022-09-20T16:47:25.207Z,14.57
2022-09-20T16:52:27.996Z,14.17
2022-09-20T16:57:39.569Z,13.81
2022-09-20T17:02:47.149Z,14.00
2022-09-20T17:07:49.267Z,14.00
2022-09-20T17:12:57.579Z,13.90
2022-09-20T17:17:59.085Z,13.69
2022-09-20T17:23:01.497Z,13.60
2022-09-20T17:28:02.995Z,12.91
2022-09-20T17:33:08.669Z,12.84
2022-09-20T17:38:10.539Z,12.74
2022-09-20T17:43:12.067Z,12.30
2022-09-20T17:48:14.842Z,12.25
2022-09-20T17:53:16.361Z,12.00
2022-09-20T17:58:17.962Z,11.81
2022-09-20T18:03:19.490Z,11.58
2022-09-20T18:08:21.189Z,11.34
2022-09-20T18:13:23.123Z,11.16
2022-09-20T18:18:24.615Z,11.00
2022-09-20T18:23:26.778Z,10.87
2022-09-20T18:28:28.923Z,10.69
2022-09-20T18:33:32.008Z,10.57
2022-09-20T18:38:33.590Z,10.42
2022-09-20T18:43:35.527Z,10.27
2022-09-20T18:48:39.746Z,10.10
2022-09-20T18:53:41.737Z,9.82
2022-09-20T18:58:44.697Z,9.69
2022-09-20T19:03:55.962Z,9.47
2022-09-20T19:09:07.359Z,9.45
2022-09-20T19:14:37.987Z,9.40
2022-09-20T19:20:16.361Z,9.32
2022-09-20T19:25:43.473Z,9.25
2022-09-20T19:30:47.344Z,9.15
2022-09-20T19:35:51.543Z,9.06
2022-09-20T19:41:18.069Z,8.94
2022-09-20T19:46:40.206Z,8.69
2022-09-20T19:51:44.082Z,8.64
2022-09-20T19:56:54.855Z,8.53
2022-09-20T20:01:57.620Z,8.29
2022-09-20T20:07:17.795Z,8.32
2022-09-20T20:12:31.409Z,8.25
2022-09-20T20:18:08.434Z,8.23
2022-09-20T20:23:55.527Z,8.16
2022-09-20T20:28:57.134Z,8.05
2022-09-20T20:33:58.648Z,8.02
2022-09-20T20:39:00.122Z,7.93
2022-09-20T20:44:05.968Z,7.89
2022-09-20T20:49:07.443Z,7.78
2022-09-20T20:54:10.330Z,7.72
2022-09-20T20:59:11.886Z,7.60
2022-09-20T21:04:15.203Z,7.57
2022-09-20T21:09:16.771Z,7.48
2022-09-20T21:14:18.294Z,7.39
2022-09-20T21:19:20.094Z,7.38
2022-09-20T21:24:21.597Z,7.22
2022-09-20T21:29:23.089Z,7.21
2022-09-20T21:34:24.936Z,7.12
2022-09-20T21:39:29.535Z,7.07
2022-09-20T21:44:31.176Z,6.91
2022-09-20T21:49:32.630Z,7.05
2022-09-20T21:54:36.072Z,7.06
2022-09-20T21:59:37.678Z,7.10
2022-09-20T22:04:42.303Z,7.08
2022-09-20T22:09:43.778Z,7.11
2022-09-20T22:14:45.244Z,7.11
2022-09-20T22:19:47.821Z,7.13
2022-09-20T22:24:49.381Z,7.23
2022-09-20T22:29:51.064Z,7.14
2022-09-20T22:34:52.719Z,7.18
2022-09-20T22:39:54.254Z,7.05
2022-09-20T22:44:55.751Z,7.05
2022-09-20T22:49:57.218Z,7.10
2022-09-20T22:54:58.710Z,7.19
2022-09-20T23:00:00.319Z,7.18
2022-09-20T23:05:01.803Z,7.15
2022-09-20T23:10:03.621Z,7.26
2022-09-20T23:15:06.933Z,7.25
2022-09-20T23:20:09.531Z,7.11
2022-09-20T23:25:11.211Z,7.06
2022-09-20T23:30:12.771Z,7.04
2022-09-20T23:35:14.346Z,6.98
2022-09-20T23:40:16.055Z,7.02
2022-09-20T23:45:17.549Z,6.96
2022-09-20T23:50:20.004Z,6.86
2022-09-20T23:55:21.499Z,6.71
